Fayetteville Regional Grannis Field
KFAY : now visible

Airfield :











YOU CAN JOIN US ON...

 
LOGIN :

Register | Disclaimer

   EN    FR    IT 

 









Legend :    VFR   Marginal VFR   IFR   Intensive IFR   Very Intensive IFR
Visi :
Ceiling :
>= 8 km
>= 3000ft
5 to 8 km
1000 to 3000 ft
1500m to 5 km
500 to 1000 ft
800 to 1500m
200 to 500 ft
< 800m
< 200 ft
Symbols :   Thunderstorms  Fog  Heavy snow  Heavy precipitations  Wind > 20 kt






- Airport Elevation : 189 ft
- IATA code : FAY


KFAY - Fayetteville Regional Grannis Field

CURRENT METAR :
  • 202053Z 19007KT 10SM FEW033 32/23 A2984 RMK AO2 LTG DSNT SE SLP097 T03170233 58012

EXPIRED METARs :
  • 202043Z VRB05KT 10SM VCTS FEW033 31/23 A2984 RMK AO2 LTG DSNT SE AND S AND NW T03060228
  • 201953Z 19009G18KT 10SM CLR 30/24 A2984 RMK AO2 LTG DSNT N AND NW SLP099 T03000239
  • 201853Z 21006KT 10SM CLR 26/23 A2987 RMK AO2 LTG DSNT N SLP108 T02610233

TAF KFAY
Valid from the 20 at 20:00 until the 21 at 18:00 UTC


202008Z 2020/2118 20010G18KT P6SM SCT025 BKN050
TEMPO 2020/2024 2SM TSRA BR SCT017 OVC025CB
FM210000 18014G22KT 4SM -SHRA BR SCT025 OVC035
FM210700 22008KT 5SM BR VCSH OVC008
FM211400 25010KT P6SM BKN015
FM211600 24012G18KT P6SM BKN050
KZDC FIR / North America



MET'MAP, your aeronautical weather chart ! - Copyright ORBIFLY December 2007 - Disclaimer

ORBIFLY MET'MAP TEAM :

Programming & Development : Alexandra Zaïnal
Concept & original design : Baudouin d'Aumeries
Assistance for programming : Marc-Olivier Méhu
Technical & hardware support : Manuel Goepfert

Contact : metmap@orbifly.com




SOURCES & CREDITS :

   NOAA       Earth
Advisory